Time;durP1;ratioP1;P1;durP2;ratioP2;P2;SDS_P1;SDS_P2;PMS_P1;PMS_P2;Temp;Humidity;BMP_temperature;BMP_pressure;BME280_temperature;BME280_humidity;BME280_pressure;Samples;Min_cycle;Max_cycle;Signal;HPM_P1;HPM_P2
2022/07/28 00:02:31;;;;;;;2.17;1.45;;;21.40;99.90;;;;;;10588632;27;20273;-88
2022/07/28 00:07:33;;;;;;;1.63;1.10;;;21.40;99.90;;;;;;10605359;27;20550;-88
2022/07/28 00:12:36;;;;;;;3.58;1.38;;;21.40;99.90;;;;;;10605769;27;20606;-88
2022/07/28 00:17:39;;;;;;;3.90;1.10;;;21.40;99.90;;;;;;10623652;27;20196;-88
2022/07/28 00:22:43;;;;;;;1.77;1.30;;;21.40;99.90;;;;;;10623367;27;20237;-88
2022/07/28 00:27:46;;;;;;;1.80;1.30;;;21.40;99.90;;;;;;10624007;27;20601;-88
2022/07/28 00:32:48;;;;;;;1.75;0.98;;;21.40;99.90;;;;;;10605091;28;20224;-89
2022/07/28 00:37:51;;;;;;;3.03;1.27;;;21.40;99.90;;;;;;10604184;28;20577;-88
2022/07/28 00:42:53;;;;;;;3.03;1.52;;;21.30;99.90;;;;;;10604284;28;20224;-88
2022/07/28 00:47:56;;;;;;;3.42;1.52;;;21.30;99.90;;;;;;10605065;28;20188;-88
2022/07/28 00:52:59;;;;;;;2.35;1.38;;;21.30;99.90;;;;;;10588100;28;20192;-88
2022/07/28 00:58:02;;;;;;;1.63;1.23;;;21.30;99.90;;;;;;10622826;28;20197;-88
2022/07/28 01:03:05;;;;;;;2.13;1.90;;;21.30;99.90;;;;;;10604848;28;20220;-87
2022/07/28 01:08:32;;;;;;;1.50;1.17;;;21.30;99.90;;;;;;10604190;27;20573;-88
2022/07/28 01:13:58;;;;;;;1.63;1.38;;;21.30;99.90;;;;;;10631297;27;20200;-88
2022/07/28 01:19:14;;;;;;;3.20;1.52;;;21.30;99.90;;;;;;10613119;27;20196;-88
2022/07/28 01:24:51;;;;;;;3.22;1.50;;;21.30;99.90;;;;;;10630499;27;20215;-88
2022/07/28 01:30:01;;;;;;;2.15;1.63;;;21.30;99.90;;;;;;10630250;27;20598;-88
2022/07/28 01:35:22;;;;;;;1.80;1.38;;;21.30;99.90;;;;;;10630462;27;20242;-88
2022/07/28 01:40:28;;;;;;;2.00;1.40;;;21.30;99.90;;;;;;10611523;27;20196;-88
2022/07/28 01:45:32;;;;;;;2.45;1.55;;;21.20;99.90;;;;;;10611749;27;20268;-88
2022/07/28 01:50:36;;;;;;;4.68;1.98;;;21.20;99.90;;;;;;10629784;27;20188;-88
2022/07/28 01:55:42;;;;;;;3.75;1.70;;;21.20;99.90;;;;;;10629181;27;20204;-88
2022/07/28 02:00:48;;;;;;;2.55;1.60;;;21.30;99.90;;;;;;10629232;27;20245;-88
2022/07/28 02:05:54;;;;;;;1.95;1.17;;;21.20;99.90;;;;;;10610521;27;20269;-89
2022/07/28 02:16:23;;;;;;;1.92;1.45;;;21.20;99.90;;;;;;10628369;27;20200;-88
2022/07/28 02:21:29;;;;;;;4.13;1.65;;;21.20;99.90;;;;;;10610346;27;20323;-88
2022/07/28 02:26:35;;;;;;;4.88;1.50;;;21.20;99.90;;;;;;10609853;27;20193;-88
2022/07/28 02:31:49;;;;;;;1.63;1.15;;;21.20;99.90;;;;;;10609058;27;20265;-88
2022/07/28 02:37:02;;;;;;;3.65;1.83;;;21.20;99.90;;;;;;10627791;27;20537;-88
2022/07/28 02:42:12;;;;;;;3.63;1.95;;;21.20;99.90;;;;;;10609891;27;20212;-88
2022/07/28 02:47:20;;;;;;;3.75;1.83;;;21.20;99.90;;;;;;10609247;27;20196;-88
2022/07/28 02:52:25;;;;;;;3.05;2.05;;;21.20;99.90;;;;;;10626925;27;20196;-88
2022/07/28 02:57:30;;;;;;;4.13;2.08;;;21.20;99.90;;;;;;10609008;27;20192;-88
2022/07/28 03:02:35;;;;;;;3.25;1.60;;;21.20;99.90;;;;;;10607637;27;20228;-88
2022/07/28 03:07:38;;;;;;;2.80;1.40;;;21.20;99.90;;;;;;10626264;27;20222;-88
2022/07/28 03:12:54;;;;;;;3.55;1.80;;;21.20;99.90;;;;;;10607387;27;20261;-88
2022/07/28 03:17:56;;;;;;;3.03;1.40;;;21.20;99.90;;;;;;10625887;27;20200;-88
2022/07/28 03:22:59;;;;;;;4.15;1.98;;;21.20;99.90;;;;;;10607207;27;20208;-88
2022/07/28 03:28:04;;;;;;;1.40;1.10;;;21.20;99.90;;;;;;10590028;27;20204;-88
2022/07/28 03:33:07;;;;;;;2.72;1.70;;;21.20;99.90;;;;;;10624549;27;20262;-88
2022/07/28 03:38:17;;;;;;;2.33;1.33;;;21.20;99.90;;;;;;10625136;27;20249;-89
2022/07/28 03:43:23;;;;;;;2.53;1.38;;;21.20;99.90;;;;;;10606338;27;20284;-88
2022/07/28 03:48:31;;;;;;;3.33;1.60;;;21.20;99.90;;;;;;10624584;27;20214;-89
2022/07/28 03:53:34;;;;;;;2.80;1.50;;;21.20;99.90;;;;;;10605910;27;20265;-88
2022/07/28 03:58:37;;;;;;;2.35;1.52;;;21.20;99.90;;;;;;10624885;27;20196;-88
2022/07/28 04:03:39;;;;;;;2.10;1.63;;;21.30;99.90;;;;;;10624019;27;20575;-88
2022/07/28 04:08:45;;;;;;;1.85;1.33;;;21.20;99.90;;;;;;10604624;27;20229;-88
2022/07/28 04:13:48;;;;;;;2.22;1.58;;;21.20;99.90;;;;;;10606012;27;20559;-88
2022/07/28 04:18:50;;;;;;;2.28;1.48;;;21.20;99.90;;;;;;10623693;27;20192;-89
2022/07/28 04:23:53;;;;;;;3.28;1.65;;;21.20;99.90;;;;;;10604783;27;20216;-88
2022/07/28 04:29:03;;;;;;;2.17;1.63;;;21.20;99.90;;;;;;10606412;27;20599;-88
2022/07/28 04:34:05;;;;;;;2.45;1.70;;;21.20;99.90;;;;;;10605377;28;20232;-88
2022/07/28 04:39:10;;;;;;;3.13;1.30;;;21.30;99.90;;;;;;10623297;28;20245;-89
2022/07/28 04:44:12;;;;;;;2.10;1.35;;;21.30;99.90;;;;;;10590192;27;20284;-88
2022/07/28 04:49:15;;;;;;;3.58;1.60;;;21.30;99.90;;;;;;10632152;27;20218;-89
2022/07/28 04:54:18;;;;;;;2.22;1.50;;;21.30;99.90;;;;;;10631525;27;20226;-88
2022/07/28 04:59:27;;;;;;;1.75;1.50;;;21.30;99.90;;;;;;10614516;27;20225;-88
2022/07/28 05:04:32;;;;;;;2.25;1.67;;;21.30;99.90;;;;;;10612520;27;20277;-89
2022/07/28 05:09:36;;;;;;;2.05;1.80;;;21.30;99.90;;;;;;10631314;27;20606;-89
2022/07/28 05:14:38;;;;;;;2.00;1.48;;;21.30;99.90;;;;;;10630994;27;20237;-88
2022/07/28 05:19:41;;;;;;;3.30;1.58;;;21.30;99.90;;;;;;10630527;27;20636;-89
2022/07/28 05:24:44;;;;;;;2.67;1.80;;;21.30;99.90;;;;;;10630231;27;20250;-88
2022/07/28 05:29:46;;;;;;;3.42;2.15;;;21.40;99.90;;;;;;10630272;27;20189;-89
2022/07/28 05:34:49;;;;;;;2.38;1.38;;;21.40;99.90;;;;;;10611473;27;20575;-88
2022/07/28 05:39:51;;;;;;;4.22;1.88;;;21.40;99.90;;;;;;10629711;27;20249;-88
2022/07/28 05:44:54;;;;;;;2.42;1.77;;;21.40;99.90;;;;;;10610627;27;20584;-88
2022/07/28 05:50:00;;;;;;;1.90;1.35;;;21.40;99.90;;;;;;10629384;27;20237;-89
2022/07/28 05:55:05;;;;;;;1.85;1.50;;;21.40;99.90;;;;;;10610434;27;20574;-88
2022/07/28 06:00:11;;;;;;;2.63;1.48;;;21.40;99.90;;;;;;10610997;27;20249;-88
2022/07/28 06:05:16;;;;;;;6.05;1.45;;;21.10;99.90;;;;;;10629445;27;20622;-88
2022/07/28 06:10:20;;;;;;;2.92;1.83;;;20.40;99.90;;;;;;10628573;27;20200;-88
2022/07/28 06:15:25;;;;;;;8.63;2.03;;;20.90;99.90;;;;;;10610052;27;20196;-88
2022/07/28 06:20:27;;;;;;;1.88;1.20;;;20.80;99.90;;;;;;10628185;27;20621;-88
2022/07/28 06:25:31;;;;;;;2.10;1.52;;;20.60;99.90;;;;;;10627906;27;20200;-88
2022/07/28 06:30:33;;;;;;;1.83;1.33;;;21.00;99.90;;;;;;10608910;27;20224;-88
2022/07/28 06:35:36;;;;;;;3.70;1.33;;;21.20;99.90;;;;;;10627857;27;20188;-88
2022/07/28 06:40:52;;;;;;;6.05;1.35;;;20.70;99.90;;;;;;10627225;27;20215;-88
2022/07/28 06:45:54;;;;;;;2.60;1.60;;;20.90;99.90;;;;;;10608949;27;20221;-88
2022/07/28 06:50:58;;;;;;;7.93;1.30;;;21.20;99.90;;;;;;10627147;27;20566;-88
2022/07/28 06:56:05;;;;;;;2.58;1.40;;;21.10;99.90;;;;;;10626939;27;20200;-88
2022/07/28 07:01:08;;;;;;;3.25;1.83;;;21.10;99.90;;;;;;10607898;27;20664;-88
2022/07/28 07:06:11;;;;;;;3.20;1.48;;;21.30;99.90;;;;;;10607047;27;20224;-88
2022/07/28 07:11:13;;;;;;;2.88;1.77;;;21.20;99.90;;;;;;10626037;27;20246;-88
2022/07/28 07:16:16;;;;;;;3.88;1.73;;;21.20;99.90;;;;;;10608017;27;20241;-88
2022/07/28 07:21:19;;;;;;;6.80;1.42;;;21.40;99.90;;;;;;10607848;27;20196;-88
2022/07/28 07:26:24;;;;;;;2.03;1.50;;;21.10;99.90;;;;;;10625395;27;20220;-87
2022/07/28 07:31:26;;;;;;;3.05;1.23;;;21.50;99.90;;;;;;10625743;27;20575;-88
2022/07/28 07:36:29;;;;;;;2.15;1.23;;;21.50;99.90;;;;;;10625029;27;20188;-87
2022/07/28 07:41:32;;;;;;;4.78;1.45;;;21.60;99.90;;;;;;10589785;27;20605;-88
2022/07/28 07:46:38;;;;;;;2.45;1.20;;;21.70;99.90;;;;;;10606101;27;20280;-88
2022/07/28 07:51:41;;;;;;;3.80;1.73;;;21.00;99.90;;;;;;10624404;27;20192;-88
2022/07/28 07:56:43;;;;;;;3.35;1.70;;;21.60;99.90;;;;;;10624593;27;20304;-89
2022/07/28 08:01:49;;;;;;;1.40;1.30;;;21.60;99.90;;;;;;10606082;27;20204;-88
2022/07/28 08:06:52;;;;;;;10.50;2.58;;;21.60;99.90;;;;;;10588702;27;20228;-88
2022/07/28 08:11:54;;;;;;;5.50;1.52;;;21.60;99.20;;;;;;10624089;27;20192;-88
2022/07/28 08:16:58;;;;;;;3.15;1.30;;;21.80;99.90;;;;;;10604891;27;20196;-88
2022/07/28 08:22:01;;;;;;;6.82;1.38;;;21.70;99.90;;;;;;10606100;27;20196;-88
2022/07/28 08:27:04;;;;;;;4.88;1.27;;;21.90;99.90;;;;;;10623537;27;20220;-89
2022/07/28 08:32:06;;;;;;;7.05;1.40;;;21.70;99.80;;;;;;10605331;27;20224;-89
2022/07/28 08:37:09;;;;;;;4.95;1.48;;;21.50;99.90;;;;;;10623492;28;20196;-88
2022/07/28 08:42:16;;;;;;;1.10;1.00;;;21.50;99.90;;;;;;10623823;28;20273;-88
2022/07/28 08:47:20;;;;;;;3.30;1.77;;;21.80;99.90;;;;;;10624068;28;20212;-89
2022/07/28 08:52:27;;;;;;;2.17;1.10;;;22.00;99.30;;;;;;10624813;28;20257;-88
2022/07/28 08:57:38;;;;;;;2.28;1.40;;;22.00;99.90;;;;;;10623734;28;20196;-88
2022/07/28 09:02:44;;;;;;;6.03;1.50;;;22.10;99.90;;;;;;10623563;28;20238;-89
2022/07/28 09:07:53;;;;;;;2.70;1.40;;;22.10;97.30;;;;;;10603449;28;20200;-89
2022/07/28 09:12:57;;;;;;;2.65;1.42;;;22.00;99.90;;;;;;10605244;28;20249;-89
2022/07/28 09:18:00;;;;;;;2.92;1.33;;;22.00;99.90;;;;;;10622887;28;20192;-89
2022/07/28 09:23:05;;;;;;;2.45;1.40;;;22.10;99.90;;;;;;10622394;28;20201;-88
2022/07/28 09:28:28;;;;;;;8.48;0.80;;;22.10;99.90;;;;;;10603916;27;20261;-89
2022/07/28 09:33:31;;;;;;;5.63;1.30;;;22.20;99.90;;;;;;10611650;27;20297;-89
2022/07/28 09:38:45;;;;;;;2.53;1.17;;;22.10;99.80;;;;;;10595844;27;20625;-90
2022/07/28 09:43:50;;;;;;;1.20;1.08;;;22.10;99.90;;;;;;10611355;27;20611;-89
2022/07/28 09:49:00;;;;;;;1.75;1.10;;;22.10;99.90;;;;;;10611083;27;20196;-88
2022/07/28 09:54:09;;;;;;;3.05;1.23;;;22.10;99.90;;;;;;10593736;27;20208;-89
2022/07/28 09:59:13;;;;;;;1.70;1.23;;;22.20;96.50;;;;;;10629377;27;20196;-89
2022/07/28 10:04:35;;;;;;;2.85;1.08;;;22.30;99.90;;;;;;10628902;27;20216;-88
2022/07/28 10:09:38;;;;;;;4.43;1.17;;;22.30;95.40;;;;;;10610437;27;20680;-88
2022/07/28 10:14:41;;;;;;;2.53;1.23;;;22.30;96.40;;;;;;10628357;27;20192;-88
2022/07/28 10:19:43;;;;;;;7.05;1.02;;;22.20;95.10;;;;;;10610293;27;20193;-90
2022/07/28 10:24:48;;;;;;;2.53;1.50;;;22.40;94.50;;;;;;10627967;27;20249;-89
2022/07/28 10:29:58;;;;;;;3.53;0.95;;;22.20;99.90;;;;;;10628396;27;20192;-89
2022/07/28 10:35:11;;;;;;;2.13;1.05;;;22.40;95.00;;;;;;10627857;27;20228;-88
2022/07/28 10:40:17;;;;;;;3.70;1.48;;;22.60;97.70;;;;;;10627942;27;20226;-89
2022/07/28 10:45:20;;;;;;;1.40;1.13;;;22.60;95.70;;;;;;10627327;27;20558;-89
2022/07/28 10:50:23;;;;;;;3.47;1.13;;;22.60;99.30;;;;;;10627007;27;20196;-88
2022/07/28 10:55:31;;;;;;;3.00;1.00;;;22.60;97.20;;;;;;10608007;27;20261;-88
2022/07/28 11:00:42;;;;;;;1.35;0.98;;;22.80;97.60;;;;;;10608609;27;20566;-89
2022/07/28 11:06:18;;;;;;;3.85;1.40;;;22.90;97.80;;;;;;10626356;27;20216;-89
2022/07/28 11:11:48;;;;;;;6.95;1.30;;;22.70;95.30;;;;;;10607785;27;20204;-88
2022/07/28 11:17:00;;;;;;;1.77;0.98;;;23.10;95.90;;;;;;10607395;27;20560;-89
2022/07/28 11:22:17;;;;;;;3.97;1.02;;;23.20;98.70;;;;;;10625633;27;20200;-88
2022/07/28 11:27:48;;;;;;;1.60;1.13;;;23.20;91.60;;;;;;10625449;27;20215;-90
2022/07/28 11:32:54;;;;;;;1.65;1.23;;;22.80;97.00;;;;;;10625015;27;20219;-88
2022/07/28 11:37:59;;;;;;;1.88;1.20;;;23.00;98.70;;;;;;10625083;27;20197;-88
2022/07/28 11:43:29;;;;;;;2.20;1.13;;;23.20;98.70;;;;;;10624438;27;20680;-88
2022/07/28 11:48:43;;;;;;;1.88;1.20;;;23.20;97.10;;;;;;10625285;27;20188;-88
2022/07/28 11:53:54;;;;;;;5.65;1.02;;;23.20;96.50;;;;;;10624300;27;20188;-89
2022/07/28 11:58:59;;;;;;;2.13;0.90;;;23.40;89.90;;;;;;10624739;27;20184;-88
2022/07/28 12:04:10;;;;;;;4.43;1.00;;;23.30;89.90;;;;;;10588595;27;20261;-89
2022/07/28 12:09:16;;;;;;;0.80;0.80;;;23.40;95.90;;;;;;10624220;27;20618;-88
2022/07/28 12:14:28;;;;;;;2.35;1.50;;;23.20;96.10;;;;;;10589732;27;20201;-89
2022/07/28 12:19:31;;;;;;;7.35;1.00;;;23.20;97.60;;;;;;10605534;27;20196;-89
2022/07/28 12:24:34;;;;;;;1.83;1.00;;;23.30;91.90;;;;;;10623654;27;20208;-89
2022/07/28 12:30:01;;;;;;;1.45;1.20;;;23.30;94.10;;;;;;10605755;27;20192;-88
2022/07/28 12:35:04;;;;;;;1.65;1.20;;;23.20;96.40;;;;;;10605782;28;20596;-89
2022/07/28 12:40:09;;;;;;;1.58;1.40;;;23.30;96.50;;;;;;10623372;28;20235;-89
2022/07/28 12:45:12;;;;;;;3.65;1.23;;;23.10;92.70;;;;;;10604659;28;20558;-89
2022/07/28 12:50:17;;;;;;;1.73;0.60;;;22.90;92.90;;;;;;10605780;28;20200;-89
2022/07/28 12:55:25;;;;;;;1.15;1.00;;;23.10;82.70;;;;;;10622988;28;20192;-89
2022/07/28 13:00:32;;;;;;;1.98;1.35;;;23.50;96.90;;;;;;10603882;28;20233;-88
2022/07/28 13:10:58;;;;;;;3.17;0.95;;;23.40;97.60;;;;;;10612278;27;20207;-88
2022/07/28 13:16:17;;;;;;;2.17;1.40;;;23.60;87.20;;;;;;10631212;27;20253;-89
2022/07/28 13:21:41;;;;;;;1.27;0.80;;;23.50;88.30;;;;;;10630872;27;20193;-88
2022/07/28 13:27:02;;;;;;;2.55;1.13;;;23.80;90.70;;;;;;10597324;27;20277;-88
2022/07/28 13:32:05;;;;;;;1.65;1.13;;;23.60;86.30;;;;;;10613745;27;20220;-88
2022/07/28 13:37:08;;;;;;;1.55;1.30;;;23.60;87.00;;;;;;10631542;27;20196;-88
2022/07/28 13:42:11;;;;;;;2.45;1.17;;;23.50;92.90;;;;;;10630241;27;20532;-88
2022/07/28 13:47:14;;;;;;;1.17;0.70;;;23.40;95.20;;;;;;10593852;27;20640;-88
2022/07/28 13:52:18;;;;;;;1.45;0.70;;;23.40;82.40;;;;;;10611773;27;20264;-88
2022/07/28 13:57:36;;;;;;;3.58;0.88;;;23.50;75.10;;;;;;10629324;27;20192;-88
2022/07/28 14:02:44;;;;;;;1.25;1.15;;;23.50;79.30;;;;;;10629578;27;20245;-88
2022/07/28 14:07:48;;;;;;;3.38;1.00;;;23.50;94.30;;;;;;10628810;27;20630;-88
2022/07/28 14:12:50;;;;;;;1.63;1.20;;;23.80;74.00;;;;;;10610314;27;20567;-88
2022/07/28 14:17:53;;;;;;;1.00;0.90;;;23.90;95.90;;;;;;10628251;27;20193;-88
2022/07/28 14:22:57;;;;;;;1.45;1.05;;;23.80;95.20;;;;;;10628823;27;20200;-89
2022/07/28 14:27:59;;;;;;;1.98;1.30;;;23.70;90.50;;;;;;10628172;27;20603;-89
2022/07/28 14:33:05;;;;;;;3.05;1.05;;;23.70;86.20;;;;;;10627815;27;20559;-88
2022/07/28 14:38:08;;;;;;;1.42;1.20;;;23.70;91.10;;;;;;10627799;27;20200;-88
2022/07/28 14:43:31;;;;;;;7.57;1.13;;;23.70;96.50;;;;;;10608480;27;20233;-89
2022/07/28 14:48:33;;;;;;;2.13;1.30;;;23.60;91.20;;;;;;10627271;27;20576;-88
2022/07/28 14:53:36;;;;;;;4.88;0.98;;;23.70;95.90;;;;;;10627057;27;20192;-88
2022/07/28 14:58:51;;;;;;;2.13;1.15;;;23.60;79.50;;;;;;10626884;27;20540;-89
2022/07/28 15:03:53;;;;;;;1.15;0.93;;;23.70;85.20;;;;;;10608397;27;20192;-88
2022/07/28 15:08:57;;;;;;;3.45;1.17;;;23.60;95.60;;;;;;10626144;27;20628;-88
2022/07/28 15:13:59;;;;;;;1.67;1.05;;;23.80;87.30;;;;;;10607862;27;20192;-88
2022/07/28 15:19:02;;;;;;;1.10;1.00;;;23.70;95.90;;;;;;10625897;27;20192;-88
2022/07/28 15:24:06;;;;;;;1.48;1.38;;;23.70;95.90;;;;;;10625617;27;20245;-88
2022/07/28 15:29:08;;;;;;;2.50;1.02;;;23.80;96.50;;;;;;10606675;27;20765;-88
2022/07/28 15:34:12;;;;;;;2.60;1.05;;;23.80;96.60;;;;;;10607419;27;20701;-88
2022/07/28 15:39:15;;;;;;;2.58;1.05;;;23.60;73.30;;;;;;10606228;27;20204;-88
2022/07/28 15:44:18;;;;;;;3.08;1.00;;;23.70;94.00;;;;;;10625211;27;20192;-88
2022/07/28 15:49:27;;;;;;;1.50;1.20;;;23.70;71.60;;;;;;10624768;27;20201;-88
2022/07/28 15:54:30;;;;;;;1.33;1.20;;;23.70;95.90;;;;;;10606447;27;20197;-89
2022/07/28 15:59:32;;;;;;;3.97;1.08;;;23.80;95.90;;;;;;10605654;27;20226;-89
2022/07/28 16:04:51;;;;;;;2.28;1.35;;;23.70;74.70;;;;;;10624177;27;20575;-88
2022/07/28 16:09:55;;;;;;;0.93;0.85;;;23.80;96.30;;;;;;10589218;27;20618;-88
2022/07/28 16:14:58;;;;;;;2.22;1.25;;;23.80;96.50;;;;;;10624237;27;20218;-88
2022/07/28 16:20:01;;;;;;;3.45;0.90;;;23.80;95.70;;;;;;10624356;27;20618;-88
2022/07/28 16:25:05;;;;;;;1.17;0.93;;;23.70;77.50;;;;;;10605916;27;20643;-88
2022/07/28 16:30:10;;;;;;;1.23;1.13;;;23.70;96.30;;;;;;10588201;27;20616;-89
2022/07/28 16:35:13;;;;;;;1.10;1.00;;;23.80;95.80;;;;;;10604899;27;20631;-87
2022/07/28 16:40:19;;;;;;;1.48;1.08;;;23.80;96.50;;;;;;10630738;27;20548;-88
2022/07/28 16:45:21;;;;;;;1.73;1.08;;;23.70;96.80;;;;;;10637694;27;20212;-88
2022/07/28 16:50:32;;;;;;;1.08;0.98;;;23.70;97.10;;;;;;10620784;27;20196;-88
2022/07/28 16:55:35;;;;;;;1.58;1.23;;;23.70;97.30;;;;;;10637317;27;20226;-88
2022/07/28 17:00:37;;;;;;;1.33;1.10;;;23.70;97.20;;;;;;10618958;27;20256;-88
2022/07/28 17:05:40;;;;;;;2.47;1.05;;;23.70;97.30;;;;;;10637324;27;20288;-88
2022/07/28 17:10:44;;;;;;;1.23;1.13;;;23.70;97.30;;;;;;10618982;27;20217;-88
2022/07/28 17:15:46;;;;;;;1.27;0.80;;;23.70;97.10;;;;;;10619140;27;20241;-88
2022/07/28 17:20:49;;;;;;;1.13;1.02;;;23.70;97.40;;;;;;10619289;27;20200;-88
2022/07/28 17:25:52;;;;;;;1.65;1.00;;;23.60;97.70;;;;;;10636509;27;20253;-88
2022/07/28 17:31:14;;;;;;;1.42;0.85;;;23.60;97.90;;;;;;10621672;27;20216;-88
2022/07/28 17:36:17;;;;;;;1.30;1.02;;;23.50;98.00;;;;;;10636577;27;20222;-88
2022/07/28 17:41:20;;;;;;;1.27;1.10;;;23.40;98.30;;;;;;10636404;27;20264;-88
2022/07/28 17:46:23;;;;;;;1.58;0.93;;;23.40;98.60;;;;;;10636546;27;20260;-89
2022/07/28 17:51:29;;;;;;;1.48;1.10;;;23.30;98.50;;;;;;10632489;27;20192;-88
2022/07/28 17:56:32;;;;;;;1.33;1.10;;;23.10;99.20;;;;;;10629331;27;20193;-88
2022/07/28 18:01:35;;;;;;;1.58;0.80;;;23.00;99.70;;;;;;10629657;27;20604;-88
2022/07/28 18:06:43;;;;;;;1.02;0.80;;;22.90;99.90;;;;;;10610361;27;20633;-88
2022/07/28 18:11:45;;;;;;;1.58;0.90;;;22.70;99.90;;;;;;10610964;27;20253;-88
2022/07/28 18:16:59;;;;;;;3.28;0.90;;;22.60;99.90;;;;;;10629414;27;20200;-88
2022/07/28 18:22:02;;;;;;;1.40;1.20;;;22.40;99.60;;;;;;10628492;27;20230;-88
2022/07/28 18:27:04;;;;;;;1.38;0.82;;;22.40;99.90;;;;;;10609917;27;20212;-88
2022/07/28 18:32:07;;;;;;;1.13;1.00;;;22.30;99.90;;;;;;10627934;27;20261;-88
2022/07/28 18:37:11;;;;;;;1.02;0.85;;;22.30;99.90;;;;;;10627747;27;20241;-87
2022/07/28 18:42:14;;;;;;;1.30;1.20;;;22.20;99.90;;;;;;10609403;27;20744;-88
2022/07/28 18:47:17;;;;;;;0.93;0.80;;;22.10;99.90;;;;;;10609117;27;20280;-87
2022/07/28 18:52:19;;;;;;;1.23;1.13;;;22.10;99.90;;;;;;10626791;27;20192;-87
2022/07/28 18:57:22;;;;;;;1.50;0.77;;;22.00;99.90;;;;;;10609010;27;20196;-88
2022/07/28 19:02:24;;;;;;;1.20;1.10;;;22.00;99.90;;;;;;10625483;27;20192;-88
2022/07/28 19:07:27;;;;;;;1.23;1.10;;;22.00;99.90;;;;;;10608238;27;20577;-88
2022/07/28 19:12:30;;;;;;;2.70;1.13;;;22.00;99.90;;;;;;10608353;27;20218;-88
2022/07/28 19:17:32;;;;;;;1.38;1.17;;;22.00;99.90;;;;;;10608062;27;20196;-88
2022/07/28 19:22:35;;;;;;;1.23;1.13;;;21.90;99.90;;;;;;10590396;27;20204;-88
2022/07/28 19:27:38;;;;;;;0.73;0.73;;;21.80;99.90;;;;;;10625462;27;20213;-88
2022/07/28 19:32:40;;;;;;;1.27;1.13;;;21.80;99.90;;;;;;10607360;27;20228;-88
2022/07/28 19:37:43;;;;;;;1.40;1.05;;;21.80;99.90;;;;;;10606441;27;20208;-88
2022/07/28 19:42:47;;;;;;;0.88;0.88;;;21.70;99.90;;;;;;10607064;27;20196;-88
2022/07/28 19:47:50;;;;;;;1.33;1.08;;;21.70;99.90;;;;;;10607031;27;20212;-88
2022/07/28 19:52:52;;;;;;;1.17;1.00;;;21.70;99.90;;;;;;10624558;27;20192;-88
2022/07/28 19:58:00;;;;;;;1.10;1.00;;;21.70;99.90;;;;;;10624631;27;20196;-87
2022/07/28 20:03:05;;;;;;;2.55;1.58;;;21.60;99.90;;;;;;10624697;27;20230;-88
2022/07/28 20:08:27;;;;;;;1.40;1.05;;;21.60;99.90;;;;;;10624395;27;20260;-88
2022/07/28 20:13:30;;;;;;;1.92;1.33;;;21.60;99.90;;;;;;10605616;27;20196;-88
2022/07/28 20:18:32;;;;;;;1.85;1.45;;;21.60;99.90;;;;;;10624416;27;20253;-87
2022/07/28 20:23:37;;;;;;;1.30;1.20;;;21.60;99.90;;;;;;10623938;27;20664;-88
2022/07/28 20:28:39;;;;;;;1.25;1.15;;;21.60;99.90;;;;;;10623484;27;20624;-88
2022/07/28 20:33:42;;;;;;;1.70;1.40;;;21.60;99.90;;;;;;10605556;27;20285;-87
2022/07/28 20:38:45;;;;;;;2.08;1.08;;;21.60;99.90;;;;;;10623818;27;20237;-88
2022/07/28 20:43:47;;;;;;;1.75;1.42;;;21.60;99.90;;;;;;10605465;28;20237;-88
2022/07/28 20:49:10;;;;;;;1.20;1.10;;;21.50;99.90;;;;;;10605314;28;20292;-88
2022/07/28 20:54:13;;;;;;;2.90;1.02;;;21.50;99.90;;;;;;10605003;28;20196;-88
2022/07/28 20:59:16;;;;;;;1.48;1.00;;;21.50;99.90;;;;;;10588024;28;20200;-88
2022/07/28 21:04:19;;;;;;;4.45;1.33;;;21.50;99.90;;;;;;10604198;28;20200;-88
2022/07/28 21:09:25;;;;;;;1.48;1.33;;;21.50;99.90;;;;;;10605293;28;20583;-88
2022/07/28 21:14:28;;;;;;;1.65;1.33;;;21.40;99.90;;;;;;10623224;28;20189;-88
2022/07/28 21:19:31;;;;;;;3.42;1.45;;;21.40;99.90;;;;;;10604801;28;20196;-87
2022/07/28 21:24:33;;;;;;;1.80;1.38;;;21.50;99.90;;;;;;10603729;27;20209;-87
2022/07/28 21:29:37;;;;;;;3.47;1.63;;;21.40;99.90;;;;;;10630218;27;20260;-88
2022/07/28 21:34:39;;;;;;;1.63;1.40;;;21.40;99.90;;;;;;10613142;27;20220;-88
2022/07/28 21:39:42;;;;;;;2.50;1.52;;;21.40;99.90;;;;;;10630214;27;20197;-88
2022/07/28 21:44:44;;;;;;;2.55;1.65;;;21.40;99.90;;;;;;10630262;27;20192;-88
2022/07/28 21:49:48;;;;;;;5.13;1.35;;;21.40;99.90;;;;;;10611032;27;20288;-88
2022/07/28 21:54:51;;;;;;;2.85;1.60;;;21.40;99.90;;;;;;10611231;27;20216;-88
2022/07/28 21:59:54;;;;;;;2.60;1.92;;;21.40;99.90;;;;;;10611774;27;20193;-88
2022/07/28 22:04:57;;;;;;;3.67;1.60;;;21.40;99.90;;;;;;10629619;27;20217;-88
2022/07/28 22:10:00;;;;;;;4.80;1.85;;;21.40;99.90;;;;;;10593521;27;20292;-88
2022/07/28 22:15:03;;;;;;;1.90;1.48;;;21.30;99.90;;;;;;10610726;27;20603;-88
2022/07/28 22:20:07;;;;;;;3.30;1.88;;;21.30;99.90;;;;;;10628877;27;20193;-88
2022/07/28 22:25:09;;;;;;;6.45;2.05;;;21.30;99.90;;;;;;10610174;27;20222;-88
2022/07/28 22:30:12;;;;;;;2.70;1.83;;;21.30;99.90;;;;;;10628126;27;20238;-88
2022/07/28 22:35:15;;;;;;;3.67;2.60;;;21.30;99.90;;;;;;10609023;27;20597;-88
2022/07/28 22:40:17;;;;;;;4.13;2.05;;;21.30;99.90;;;;;;10592301;27;20245;-88
2022/07/28 22:45:20;;;;;;;8.05;2.33;;;21.30;99.90;;;;;;10609675;27;20560;-88
2022/07/28 22:50:43;;;;;;;3.63;2.05;;;21.20;99.90;;;;;;10627563;27;20216;-88
2022/07/28 22:55:45;;;;;;;2.70;1.92;;;21.30;99.90;;;;;;10629556;27;20193;-88
2022/07/28 23:01:05;;;;;;;2.10;1.90;;;21.20;99.90;;;;;;10611513;27;20177;-88
2022/07/28 23:06:08;;;;;;;3.95;1.95;;;21.30;99.90;;;;;;10626885;27;20241;-88
2022/07/28 23:11:11;;;;;;;3.38;2.28;;;21.20;99.90;;;;;;10607442;27;20212;-88
2022/07/28 23:16:14;;;;;;;3.65;1.58;;;21.20;99.90;;;;;;10626925;27;20192;-88
2022/07/28 23:21:17;;;;;;;6.28;2.33;;;21.20;99.90;;;;;;10626848;27;20567;-89
2022/07/28 23:26:19;;;;;;;3.42;1.75;;;21.20;99.90;;;;;;10626014;27;20250;-88
2022/07/28 23:31:22;;;;;;;6.28;2.30;;;21.20;99.90;;;;;;10625855;27;20228;-88
2022/07/28 23:36:25;;;;;;;3.30;2.10;;;21.20;99.90;;;;;;10607194;27;20200;-88
2022/07/28 23:41:29;;;;;;;4.35;2.03;;;21.20;99.90;;;;;;10607603;27;20574;-88
2022/07/28 23:46:31;;;;;;;5.43;2.33;;;21.20;99.90;;;;;;10607896;27;20222;-88
2022/07/28 23:51:34;;;;;;;2.70;2.00;;;21.20;99.90;;;;;;10624847;27;20619;-88
2022/07/28 23:56:51;;;;;;;6.38;2.40;;;21.20;99.90;;;;;;10606876;27;20207;-88
